sensor_id;sensor_type;location;lat;lon;timestamp;temperature;humidity
77496;SHT31;66600;48.378;9.948;2023-12-28T00:00:28;1.07;90.77
77496;SHT31;66600;48.378;9.948;2023-12-28T00:00:58;1.05;90.87
77496;SHT31;66600;48.378;9.948;2023-12-28T00:01:29;1.04;90.95
77496;SHT31;66600;48.378;9.948;2023-12-28T00:01:59;1.04;91.00
77496;SHT31;66600;48.378;9.948;2023-12-28T00:02:29;1.04;91.03
77496;SHT31;66600;48.378;9.948;2023-12-28T00:03:00;1.04;90.98
77496;SHT31;66600;48.378;9.948;2023-12-28T00:03:30;1.01;91.01
77496;SHT31;66600;48.378;9.948;2023-12-28T00:04:00;1.05;91.06
77496;SHT31;66600;48.378;9.948;2023-12-28T00:04:31;1.04;91.06
77496;SHT31;66600;48.378;9.948;2023-12-28T00:05:03;1.07;91.04
77496;SHT31;66600;48.378;9.948;2023-12-28T00:05:34;1.07;90.98
77496;SHT31;66600;48.378;9.948;2023-12-28T00:06:04;1.11;90.84
77496;SHT31;66600;48.378;9.948;2023-12-28T00:06:35;1.15;90.76
77496;SHT31;66600;48.378;9.948;2023-12-28T00:07:06;1.18;90.63
77496;SHT31;66600;48.378;9.948;2023-12-28T00:07:36;1.20;90.51
77496;SHT31;66600;48.378;9.948;2023-12-28T00:08:06;1.21;90.47
77496;SHT31;66600;48.378;9.948;2023-12-28T00:08:36;1.21;90.47
77496;SHT31;66600;48.378;9.948;2023-12-28T00:09:08;1.18;90.53
77496;SHT31;66600;48.378;9.948;2023-12-28T00:09:38;1.15;90.59
77496;SHT31;66600;48.378;9.948;2023-12-28T00:10:09;1.15;90.61
77496;SHT31;66600;48.378;9.948;2023-12-28T00:10:39;1.15;90.66
77496;SHT31;66600;48.378;9.948;2023-12-28T00:11:10;1.14;90.69
77496;SHT31;66600;48.378;9.948;2023-12-28T00:11:40;1.15;90.70
77496;SHT31;66600;48.378;9.948;2023-12-28T00:12:10;1.14;90.73
77496;SHT31;66600;48.378;9.948;2023-12-28T00:12:41;1.13;90.76
77496;SHT31;66600;48.378;9.948;2023-12-28T00:13:11;1.13;90.69
77496;SHT31;66600;48.378;9.948;2023-12-28T00:13:41;1.13;90.67
77496;SHT31;66600;48.378;9.948;2023-12-28T00:14:12;1.13;90.68
77496;SHT31;66600;48.378;9.948;2023-12-28T00:14:42;1.13;90.73
77496;SHT31;66600;48.378;9.948;2023-12-28T00:15:12;1.17;90.66
77496;SHT31;66600;48.378;9.948;2023-12-28T00:15:43;1.15;90.81
77496;SHT31;66600;48.378;9.948;2023-12-28T00:16:13;1.18;90.80
77496;SHT31;66600;48.378;9.948;2023-12-28T00:16:43;1.15;90.70
77496;SHT31;66600;48.378;9.948;2023-12-28T00:17:14;1.18;90.67
77496;SHT31;66600;48.378;9.948;2023-12-28T00:17:44;1.15;90.59
77496;SHT31;66600;48.378;9.948;2023-12-28T00:18:14;1.11;90.63
77496;SHT31;66600;48.378;9.948;2023-12-28T00:18:45;1.18;90.58
77496;SHT31;66600;48.378;9.948;2023-12-28T00:19:15;1.22;90.45
77496;SHT31;66600;48.378;9.948;2023-12-28T00:19:46;1.20;90.31
77496;SHT31;66600;48.378;9.948;2023-12-28T00:20:16;1.22;90.26
77496;SHT31;66600;48.378;9.948;2023-12-28T00:20:46;1.27;90.19
77496;SHT31;66600;48.378;9.948;2023-12-28T00:21:17;1.25;90.17
77496;SHT31;66600;48.378;9.948;2023-12-28T00:21:47;1.24;90.13
77496;SHT31;66600;48.378;9.948;2023-12-28T00:22:18;1.31;90.11
77496;SHT31;66600;48.378;9.948;2023-12-28T00:22:48;1.32;89.99
77496;SHT31;66600;48.378;9.948;2023-12-28T00:23:18;1.39;89.93
77496;SHT31;66600;48.378;9.948;2023-12-28T00:23:50;1.42;89.77
77496;SHT31;66600;48.378;9.948;2023-12-28T00:24:20;1.42;89.75
77496;SHT31;66600;48.378;9.948;2023-12-28T00:24:51;1.48;89.70
77496;SHT31;66600;48.378;9.948;2023-12-28T00:25:21;1.51;89.64
77496;SHT31;66600;48.378;9.948;2023-12-28T00:25:52;1.55;89.50
77496;SHT31;66600;48.378;9.948;2023-12-28T00:26:22;1.62;89.37
77496;SHT31;66600;48.378;9.948;2023-12-28T00:26:52;1.69;89.17
77496;SHT31;66600;48.378;9.948;2023-12-28T00:27:23;1.74;89.03
77496;SHT31;66600;48.378;9.948;2023-12-28T00:27:53;1.83;88.73
77496;SHT31;66600;48.378;9.948;2023-12-28T00:28:23;1.89;88.41
77496;SHT31;66600;48.378;9.948;2023-12-28T00:28:54;1.96;88.22
77496;SHT31;66600;48.378;9.948;2023-12-28T00:29:24;1.99;87.98
77496;SHT31;66600;48.378;9.948;2023-12-28T00:29:54;2.10;87.62
77496;SHT31;66600;48.378;9.948;2023-12-28T00:30:25;2.10;87.45
77496;SHT31;66600;48.378;9.948;2023-12-28T00:30:55;2.20;87.76
77496;SHT31;66600;48.378;9.948;2023-12-28T00:31:26;2.20;87.52
77496;SHT31;66600;48.378;9.948;2023-12-28T00:31:56;2.27;87.19
77496;SHT31;66600;48.378;9.948;2023-12-28T00:32:26;2.32;86.78
77496;SHT31;66600;48.378;9.948;2023-12-28T00:32:57;2.34;86.64
77496;SHT31;66600;48.378;9.948;2023-12-28T00:33:27;2.42;87.28
77496;SHT31;66600;48.378;9.948;2023-12-28T00:33:57;2.38;86.75
77496;SHT31;66600;48.378;9.948;2023-12-28T00:34:28;2.42;86.56
77496;SHT31;66600;48.378;9.948;2023-12-28T00:34:58;2.41;86.16
77496;SHT31;66600;48.378;9.948;2023-12-28T00:35:29;2.52;86.85
77496;SHT31;66600;48.378;9.948;2023-12-28T00:35:59;2.46;86.26
77496;SHT31;66600;48.378;9.948;2023-12-28T00:36:29;2.45;85.92
77496;SHT31;66600;48.378;9.948;2023-12-28T00:37:00;2.49;85.68
77496;SHT31;66600;48.378;9.948;2023-12-28T00:37:30;2.50;85.70
77496;SHT31;66600;48.378;9.948;2023-12-28T00:38:00;2.55;85.78
77496;SHT31;66600;48.378;9.948;2023-12-28T00:38:31;2.50;85.50
77496;SHT31;66600;48.378;9.948;2023-12-28T00:39:01;2.63;85.83
77496;SHT31;66600;48.378;9.948;2023-12-28T00:39:34;2.57;85.43
77496;SHT31;66600;48.378;9.948;2023-12-28T00:40:06;2.63;85.11
77496;SHT31;66600;48.378;9.948;2023-12-28T00:40:36;2.65;84.97
77496;SHT31;66600;48.378;9.948;2023-12-28T00:41:06;2.65;84.86
77496;SHT31;66600;48.378;9.948;2023-12-28T00:41:37;2.66;84.96
77496;SHT31;66600;48.378;9.948;2023-12-28T00:42:07;2.66;84.78
77496;SHT31;66600;48.378;9.948;2023-12-28T00:42:38;2.66;84.80
77496;SHT31;66600;48.378;9.948;2023-12-28T00:43:11;2.71;84.72
77496;SHT31;66600;48.378;9.948;2023-12-28T00:43:41;2.71;84.66
77496;SHT31;66600;48.378;9.948;2023-12-28T00:44:11;2.79;85.26
77496;SHT31;66600;48.378;9.948;2023-12-28T00:44:42;2.73;84.73
77496;SHT31;66600;48.378;9.948;2023-12-28T00:45:12;2.75;84.67
77496;SHT31;66600;48.378;9.948;2023-12-28T00:45:43;2.72;84.70
77496;SHT31;66600;48.378;9.948;2023-12-28T00:46:13;2.71;84.72
77496;SHT31;66600;48.378;9.948;2023-12-28T00:46:44;2.72;84.90
77496;SHT31;66600;48.378;9.948;2023-12-28T00:47:14;2.77;85.14
77496;SHT31;66600;48.378;9.948;2023-12-28T00:47:44;2.77;84.56
77496;SHT31;66600;48.378;9.948;2023-12-28T00:48:15;2.72;84.57
77496;SHT31;66600;48.378;9.948;2023-12-28T00:48:45;2.71;84.54
77496;SHT31;66600;48.378;9.948;2023-12-28T00:49:15;2.80;85.20
77496;SHT31;66600;48.378;9.948;2023-12-28T00:49:49;2.93;85.82
77496;SHT31;66600;48.378;9.948;2023-12-28T00:50:19;2.80;85.02
77496;SHT31;66600;48.378;9.948;2023-12-28T00:50:50;2.76;84.52
77496;SHT31;66600;48.378;9.948;2023-12-28T00:51:21;2.84;84.89
77496;SHT31;66600;48.378;9.948;2023-12-28T00:51:55;2.94;85.32
77496;SHT31;66600;48.378;9.948;2023-12-28T00:52:25;2.87;84.97
77496;SHT31;66600;48.378;9.948;2023-12-28T00:52:56;2.80;84.80
77496;SHT31;66600;48.378;9.948;2023-12-28T00:53:26;2.75;84.51
77496;SHT31;66600;48.378;9.948;2023-12-28T00:53:59;2.69;84.52
77496;SHT31;66600;48.378;9.948;2023-12-28T00:54:30;2.71;84.98
77496;SHT31;66600;48.378;9.948;2023-12-28T00:55:00;2.73;85.22
77496;SHT31;66600;48.378;9.948;2023-12-28T00:55:30;2.75;85.41
77496;SHT31;66600;48.378;9.948;2023-12-28T00:56:01;2.65;85.09
77496;SHT31;66600;48.378;9.948;2023-12-28T00:56:31;2.55;85.09
77496;SHT31;66600;48.378;9.948;2023-12-28T00:57:03;2.50;85.22
77496;SHT31;66600;48.378;9.948;2023-12-28T00:57:34;2.48;85.26
77496;SHT31;66600;48.378;9.948;2023-12-28T00:58:04;2.45;85.45
77496;SHT31;66600;48.378;9.948;2023-12-28T00:58:34;2.38;85.60
77496;SHT31;66600;48.378;9.948;2023-12-28T00:59:05;2.35;85.72
77496;SHT31;66600;48.378;9.948;2023-12-28T00:59:36;2.31;85.77
77496;SHT31;66600;48.378;9.948;2023-12-28T01:00:07;2.31;85.78
77496;SHT31;66600;48.378;9.948;2023-12-28T01:00:37;2.28;85.86
77496;SHT31;66600;48.378;9.948;2023-12-28T01:01:08;2.27;85.92
77496;SHT31;66600;48.378;9.948;2023-12-28T01:01:38;2.27;85.99
77496;SHT31;66600;48.378;9.948;2023-12-28T01:02:09;2.21;86.09
77496;SHT31;66600;48.378;9.948;2023-12-28T01:02:40;2.22;86.14
77496;SHT31;66600;48.378;9.948;2023-12-28T01:03:10;2.15;86.33
77496;SHT31;66600;48.378;9.948;2023-12-28T01:03:40;2.11;86.45
77496;SHT31;66600;48.378;9.948;2023-12-28T01:04:11;2.10;86.49
77496;SHT31;66600;48.378;9.948;2023-12-28T01:04:41;2.11;86.49
77496;SHT31;66600;48.378;9.948;2023-12-28T01:05:12;2.13;86.48
77496;SHT31;66600;48.378;9.948;2023-12-28T01:05:43;2.14;86.46
77496;SHT31;66600;48.378;9.948;2023-12-28T01:06:13;2.14;86.51
77496;SHT31;66600;48.378;9.948;2023-12-28T01:06:43;2.11;86.55
77496;SHT31;66600;48.378;9.948;2023-12-28T01:07:14;2.08;86.67
77496;SHT31;66600;48.378;9.948;2023-12-28T01:07:44;2.06;86.75
77496;SHT31;66600;48.378;9.948;2023-12-28T01:08:15;2.04;86.82
77496;SHT31;66600;48.378;9.948;2023-12-28T01:08:45;2.01;86.93
77496;SHT31;66600;48.378;9.948;2023-12-28T01:09:16;2.00;87.02
77496;SHT31;66600;48.378;9.948;2023-12-28T01:09:46;1.96;87.10
77496;SHT31;66600;48.378;9.948;2023-12-28T01:10:17;1.94;87.22
77496;SHT31;66600;48.378;9.948;2023-12-28T01:10:47;1.91;87.32
77496;SHT31;66600;48.378;9.948;2023-12-28T01:11:17;1.93;87.36
77496;SHT31;66600;48.378;9.948;2023-12-28T01:11:48;1.93;87.41
77496;SHT31;66600;48.378;9.948;2023-12-28T01:12:18;1.90;87.44
77496;SHT31;66600;48.378;9.948;2023-12-28T01:12:48;1.89;87.49
77496;SHT31;66600;48.378;9.948;2023-12-28T01:13:18;1.86;87.57
77496;SHT31;66600;48.378;9.948;2023-12-28T01:13:51;1.83;87.69
77496;SHT31;66600;48.378;9.948;2023-12-28T01:14:21;1.81;87.78
77496;SHT31;66600;48.378;9.948;2023-12-28T01:14:52;1.77;87.79
77496;SHT31;66600;48.378;9.948;2023-12-28T01:15:22;1.74;87.84
77496;SHT31;66600;48.378;9.948;2023-12-28T01:15:52;1.72;87.92
77496;SHT31;66600;48.378;9.948;2023-12-28T01:16:23;1.70;88.06
77496;SHT31;66600;48.378;9.948;2023-12-28T01:16:53;1.66;88.21
77496;SHT31;66600;48.378;9.948;2023-12-28T01:17:23;1.66;88.25
77496;SHT31;66600;48.378;9.948;2023-12-28T01:17:54;1.66;88.21
77496;SHT31;66600;48.378;9.948;2023-12-28T01:18:24;1.67;88.11
77496;SHT31;66600;48.378;9.948;2023-12-28T01:18:54;1.70;88.00
77496;SHT31;66600;48.378;9.948;2023-12-28T01:19:25;1.70;87.92
77496;SHT31;66600;48.378;9.948;2023-12-28T01:19:55;1.70;87.88
77496;SHT31;66600;48.378;9.948;2023-12-28T01:20:25;1.72;87.82
77496;SHT31;66600;48.378;9.948;2023-12-28T01:20:56;1.67;87.99
77496;SHT31;66600;48.378;9.948;2023-12-28T01:21:26;1.66;88.00
77496;SHT31;66600;48.378;9.948;2023-12-28T01:21:58;1.69;87.88
77496;SHT31;66600;48.378;9.948;2023-12-28T01:22:28;1.69;87.83
77496;SHT31;66600;48.378;9.948;2023-12-28T01:22:59;1.69;87.77
77496;SHT31;66600;48.378;9.948;2023-12-28T01:23:29;1.69;87.86
77496;SHT31;66600;48.378;9.948;2023-12-28T01:23:59;1.63;87.93
77496;SHT31;66600;48.378;9.948;2023-12-28T01:24:30;1.62;87.98
77496;SHT31;66600;48.378;9.948;2023-12-28T01:25:00;1.64;88.01
77496;SHT31;66600;48.378;9.948;2023-12-28T01:25:31;1.64;88.01
77496;SHT31;66600;48.378;9.948;2023-12-28T01:26:01;1.63;88.04
77496;SHT31;66600;48.378;9.948;2023-12-28T01:26:31;1.62;88.11
77496;SHT31;66600;48.378;9.948;2023-12-28T01:27:02;1.62;88.10
77496;SHT31;66600;48.378;9.948;2023-12-28T01:27:33;1.66;88.02
77496;SHT31;66600;48.378;9.948;2023-12-28T01:28:03;1.69;87.92
77496;SHT31;66600;48.378;9.948;2023-12-28T01:28:34;1.74;87.80
77496;SHT31;66600;48.378;9.948;2023-12-28T01:29:05;1.79;87.65
77496;SHT31;66600;48.378;9.948;2023-12-28T01:29:35;1.80;87.51
77496;SHT31;66600;48.378;9.948;2023-12-28T01:30:06;1.80;87.42
77496;SHT31;66600;48.378;9.948;2023-12-28T01:30:36;1.83;87.37
77496;SHT31;66600;48.378;9.948;2023-12-28T01:31:07;1.77;87.47
77496;SHT31;66600;48.378;9.948;2023-12-28T01:31:37;1.76;87.54
77496;SHT31;66600;48.378;9.948;2023-12-28T01:32:09;1.77;87.59
77496;SHT31;66600;48.378;9.948;2023-12-28T01:32:39;1.73;87.65
77496;SHT31;66600;48.378;9.948;2023-12-28T01:33:09;1.72;87.74
77496;SHT31;66600;48.378;9.948;2023-12-28T01:33:40;1.73;87.68
77496;SHT31;66600;48.378;9.948;2023-12-28T01:34:10;1.70;87.74
77496;SHT31;66600;48.378;9.948;2023-12-28T01:34:43;1.66;87.84
77496;SHT31;66600;48.378;9.948;2023-12-28T01:35:13;1.66;87.88
77496;SHT31;66600;48.378;9.948;2023-12-28T01:35:43;1.64;87.99
77496;SHT31;66600;48.378;9.948;2023-12-28T01:36:16;1.63;88.06
77496;SHT31;66600;48.378;9.948;2023-12-28T01:36:47;1.60;88.05
77496;SHT31;66600;48.378;9.948;2023-12-28T01:37:17;1.62;88.07
77496;SHT31;66600;48.378;9.948;2023-12-28T01:37:47;1.63;88.01
77496;SHT31;66600;48.378;9.948;2023-12-28T01:38:18;1.63;87.93
77496;SHT31;66600;48.378;9.948;2023-12-28T01:38:48;1.64;87.89
77496;SHT31;66600;48.378;9.948;2023-12-28T01:39:19;1.67;87.77
77496;SHT31;66600;48.378;9.948;2023-12-28T01:39:49;1.70;87.69
77496;SHT31;66600;48.378;9.948;2023-12-28T01:40:19;1.72;87.61
77496;SHT31;66600;48.378;9.948;2023-12-28T01:40:49;1.72;87.64
77496;SHT31;66600;48.378;9.948;2023-12-28T01:41:20;1.66;87.72
77496;SHT31;66600;48.378;9.948;2023-12-28T01:41:50;1.62;87.93
77496;SHT31;66600;48.378;9.948;2023-12-28T01:42:21;1.59;88.09
77496;SHT31;66600;48.378;9.948;2023-12-28T01:42:51;1.56;88.22
77496;SHT31;66600;48.378;9.948;2023-12-28T01:43:21;1.55;88.31
77496;SHT31;66600;48.378;9.948;2023-12-28T01:43:51;1.53;88.39
77496;SHT31;66600;48.378;9.948;2023-12-28T01:44:22;1.48;88.42
77496;SHT31;66600;48.378;9.948;2023-12-28T01:44:52;1.53;88.46
77496;SHT31;66600;48.378;9.948;2023-12-28T01:45:22;1.53;88.37
77496;SHT31;66600;48.378;9.948;2023-12-28T01:45:53;1.53;88.32
77496;SHT31;66600;48.378;9.948;2023-12-28T01:46:23;1.55;88.35
77496;SHT31;66600;48.378;9.948;2023-12-28T01:46:54;1.56;88.30
77496;SHT31;66600;48.378;9.948;2023-12-28T01:47:25;1.56;88.39
77496;SHT31;66600;48.378;9.948;2023-12-28T01:47:57;1.53;88.39
77496;SHT31;66600;48.378;9.948;2023-12-28T01:48:29;1.58;88.41
77496;SHT31;66600;48.378;9.948;2023-12-28T01:49:00;1.60;88.36
77496;SHT31;66600;48.378;9.948;2023-12-28T01:49:32;1.60;88.27
77496;SHT31;66600;48.378;9.948;2023-12-28T01:50:05;1.63;88.21
77496;SHT31;66600;48.378;9.948;2023-12-28T01:50:36;1.64;88.16
77496;SHT31;66600;48.378;9.948;2023-12-28T01:51:07;1.63;88.16
77496;SHT31;66600;48.378;9.948;2023-12-28T01:51:38;1.62;88.21
77496;SHT31;66600;48.378;9.948;2023-12-28T01:52:08;1.59;88.21
77496;SHT31;66600;48.378;9.948;2023-12-28T01:52:38;1.59;88.29
77496;SHT31;66600;48.378;9.948;2023-12-28T01:53:10;1.58;88.32
77496;SHT31;66600;48.378;9.948;2023-12-28T01:53:41;1.58;88.38
77496;SHT31;66600;48.378;9.948;2023-12-28T01:54:13;1.59;88.36
77496;SHT31;66600;48.378;9.948;2023-12-28T01:54:43;1.58;88.42
77496;SHT31;66600;48.378;9.948;2023-12-28T01:55:14;1.58;88.50
77496;SHT31;66600;48.378;9.948;2023-12-28T01:55:45;1.53;88.50
77496;SHT31;66600;48.378;9.948;2023-12-28T01:56:15;1.55;88.54
77496;SHT31;66600;48.378;9.948;2023-12-28T01:56:47;1.52;88.57
77496;SHT31;66600;48.378;9.948;2023-12-28T01:57:17;1.52;88.63
77496;SHT31;66600;48.378;9.948;2023-12-28T01:57:48;1.55;88.62
77496;SHT31;66600;48.378;9.948;2023-12-28T01:58:18;1.55;88.57
77496;SHT31;66600;48.378;9.948;2023-12-28T01:58:49;1.55;88.58
77496;SHT31;66600;48.378;9.948;2023-12-28T01:59:20;1.53;88.57
77496;SHT31;66600;48.378;9.948;2023-12-28T01:59:52;1.53;88.65
77496;SHT31;66600;48.378;9.948;2023-12-28T02:00:23;1.55;88.71
77496;SHT31;66600;48.378;9.948;2023-12-28T02:00:55;1.56;88.69
77496;SHT31;66600;48.378;9.948;2023-12-28T02:01:26;1.56;88.64
77496;SHT31;66600;48.378;9.948;2023-12-28T02:01:57;1.60;88.61
77496;SHT31;66600;48.378;9.948;2023-12-28T02:02:28;1.63;88.55
77496;SHT31;66600;48.378;9.948;2023-12-28T02:03:00;1.64;88.37
77496;SHT31;66600;48.378;9.948;2023-12-28T02:03:30;1.70;88.26
77496;SHT31;66600;48.378;9.948;2023-12-28T02:04:00;1.73;88.19
77496;SHT31;66600;48.378;9.948;2023-12-28T02:04:31;1.74;88.03
77496;SHT31;66600;48.378;9.948;2023-12-28T02:05:02;1.74;87.99
77496;SHT31;66600;48.378;9.948;2023-12-28T02:05:33;1.77;87.96
77496;SHT31;66600;48.378;9.948;2023-12-28T02:06:06;1.76;87.87
77496;SHT31;66600;48.378;9.948;2023-12-28T02:06:37;1.76;87.89
77496;SHT31;66600;48.378;9.948;2023-12-28T02:07:08;1.76;87.93
77496;SHT31;66600;48.378;9.948;2023-12-28T02:07:38;1.72;87.92
77496;SHT31;66600;48.378;9.948;2023-12-28T02:08:08;1.70;88.02
77496;SHT31;66600;48.378;9.948;2023-12-28T02:08:39;1.67;88.14
77496;SHT31;66600;48.378;9.948;2023-12-28T02:09:09;1.67;88.17
77496;SHT31;66600;48.378;9.948;2023-12-28T02:09:39;1.67;88.22
77496;SHT31;66600;48.378;9.948;2023-12-28T02:10:10;1.63;88.33
77496;SHT31;66600;48.378;9.948;2023-12-28T02:10:40;1.64;88.30
77496;SHT31;66600;48.378;9.948;2023-12-28T02:11:11;1.63;88.35
77496;SHT31;66600;48.378;9.948;2023-12-28T02:11:41;1.63;88.38
77496;SHT31;66600;48.378;9.948;2023-12-28T02:12:11;1.63;88.40
77496;SHT31;66600;48.378;9.948;2023-12-28T02:12:42;1.60;88.50
77496;SHT31;66600;48.378;9.948;2023-12-28T02:13:13;1.64;88.52
77496;SHT31;66600;48.378;9.948;2023-12-28T02:13:43;1.64;88.49
77496;SHT31;66600;48.378;9.948;2023-12-28T02:14:14;1.66;88.45
77496;SHT31;66600;48.378;9.948;2023-12-28T02:14:45;1.67;88.45
77496;SHT31;66600;48.378;9.948;2023-12-28T02:15:16;1.69;88.40
77496;SHT31;66600;48.378;9.948;2023-12-28T02:15:51;1.69;88.33
77496;SHT31;66600;48.378;9.948;2023-12-28T02:16:28;1.69;88.31
77496;SHT31;66600;48.378;9.948;2023-12-28T02:17:06;1.73;88.16
77496;SHT31;66600;48.378;9.948;2023-12-28T02:17:55;1.74;88.13
77496;SHT31;66600;48.378;9.948;2023-12-28T02:18:34;1.73;88.02
77496;SHT31;66600;48.378;9.948;2023-12-28T02:19:54;1.76;88.01
77496;SHT31;66600;48.378;9.948;2023-12-28T02:20:26;1.74;88.02
77496;SHT31;66600;48.378;9.948;2023-12-28T02:20:58;1.73;88.05
77496;SHT31;66600;48.378;9.948;2023-12-28T02:21:28;1.69;88.17
77496;SHT31;66600;48.378;9.948;2023-12-28T02:22:00;1.67;88.25
77496;SHT31;66600;48.378;9.948;2023-12-28T02:22:31;1.67;88.29
77496;SHT31;66600;48.378;9.948;2023-12-28T02:23:02;1.64;88.29
77496;SHT31;66600;48.378;9.948;2023-12-28T02:23:32;1.60;88.39
77496;SHT31;66600;48.378;9.948;2023-12-28T02:24:03;1.64;88.36
77496;SHT31;66600;48.378;9.948;2023-12-28T02:25:29;1.66;88.23
77496;SHT31;66600;48.378;9.948;2023-12-28T02:25:59;1.70;88.21
77496;SHT31;66600;48.378;9.948;2023-12-28T02:26:30;1.69;88.13
77496;SHT31;66600;48.378;9.948;2023-12-28T02:27:00;1.70;88.12
77496;SHT31;66600;48.378;9.948;2023-12-28T02:27:31;1.67;88.13
77496;SHT31;66600;48.378;9.948;2023-12-28T02:28:02;1.67;88.14
77496;SHT31;66600;48.378;9.948;2023-12-28T02:28:32;1.69;88.10
77496;SHT31;66600;48.378;9.948;2023-12-28T02:29:02;1.69;88.08
77496;SHT31;66600;48.378;9.948;2023-12-28T02:29:33;1.67;88.11
77496;SHT31;66600;48.378;9.948;2023-12-28T02:30:05;1.69;88.15
77496;SHT31;66600;48.378;9.948;2023-12-28T02:30:35;1.67;88.13
77496;SHT31;66600;48.378;9.948;2023-12-28T02:31:07;1.66;88.13
77496;SHT31;66600;48.378;9.948;2023-12-28T02:31:49;1.67;88.06
77496;SHT31;66600;48.378;9.948;2023-12-28T02:32:24;1.69;88.05
77496;SHT31;66600;48.378;9.948;2023-12-28T02:33:11;1.69;88.00
77496;SHT31;66600;48.378;9.948;2023-12-28T02:33:49;1.74;87.94
77496;SHT31;66600;48.378;9.948;2023-12-28T02:34:27;1.72;87.89
77496;SHT31;66600;48.378;9.948;2023-12-28T02:35:06;1.72;87.87
77496;SHT31;66600;48.378;9.948;2023-12-28T02:35:42;1.70;87.86
77496;SHT31;66600;48.378;9.948;2023-12-28T02:36:15;1.72;87.87
77496;SHT31;66600;48.378;9.948;2023-12-28T02:36:49;1.70;87.87
77496;SHT31;66600;48.378;9.948;2023-12-28T02:37:20;1.70;87.89
77496;SHT31;66600;48.378;9.948;2023-12-28T02:37:53;1.69;87.93
77496;SHT31;66600;48.378;9.948;2023-12-28T02:38:27;1.67;87.95
77496;SHT31;66600;48.378;9.948;2023-12-28T02:38:59;1.64;88.15
77496;SHT31;66600;48.378;9.948;2023-12-28T02:39:32;1.63;88.16
77496;SHT31;66600;48.378;9.948;2023-12-28T02:40:03;1.58;88.24
77496;SHT31;66600;48.378;9.948;2023-12-28T02:40:41;1.60;88.27
77496;SHT31;66600;48.378;9.948;2023-12-28T02:41:14;1.59;88.25
77496;SHT31;66600;48.378;9.948;2023-12-28T02:41:45;1.62;88.27
77496;SHT31;66600;48.378;9.948;2023-12-28T02:42:16;1.60;88.29
77496;SHT31;66600;48.378;9.948;2023-12-28T02:42:46;1.62;88.27
77496;SHT31;66600;48.378;9.948;2023-12-28T02:43:17;1.63;88.28
77496;SHT31;66600;48.378;9.948;2023-12-28T02:43:48;1.62;88.26
77496;SHT31;66600;48.378;9.948;2023-12-28T02:44:19;1.60;88.20
77496;SHT31;66600;48.378;9.948;2023-12-28T02:44:49;1.62;88.21
77496;SHT31;66600;48.378;9.948;2023-12-28T02:45:20;1.60;88.21
77496;SHT31;66600;48.378;9.948;2023-12-28T02:45:50;1.56;88.29
77496;SHT31;66600;48.378;9.948;2023-12-28T02:46:21;1.53;88.41
77496;SHT31;66600;48.378;9.948;2023-12-28T02:46:51;1.52;88.40
77496;SHT31;66600;48.378;9.948;2023-12-28T02:47:21;1.52;88.43
77496;SHT31;66600;48.378;9.948;2023-12-28T02:47:52;1.49;88.55
77496;SHT31;66600;48.378;9.948;2023-12-28T02:48:22;1.48;88.56
77496;SHT31;66600;48.378;9.948;2023-12-28T02:48:52;1.51;88.55
77496;SHT31;66600;48.378;9.948;2023-12-28T02:49:27;1.49;88.55
77496;SHT31;66600;48.378;9.948;2023-12-28T02:49:57;1.46;88.61
77496;SHT31;66600;48.378;9.948;2023-12-28T02:50:29;1.45;88.69
77496;SHT31;66600;48.378;9.948;2023-12-28T02:51:02;1.46;88.65
77496;SHT31;66600;48.378;9.948;2023-12-28T02:51:33;1.49;88.65
77496;SHT31;66600;48.378;9.948;2023-12-28T02:52:03;1.48;88.58
77496;SHT31;66600;48.378;9.948;2023-12-28T02:52:34;1.51;88.60
77496;SHT31;66600;48.378;9.948;2023-12-28T02:53:04;1.49;88.57
77496;SHT31;66600;48.378;9.948;2023-12-28T02:53:35;1.46;88.55
77496;SHT31;66600;48.378;9.948;2023-12-28T02:54:05;1.48;88.57
77496;SHT31;66600;48.378;9.948;2023-12-28T02:54:36;1.45;88.62
77496;SHT31;66600;48.378;9.948;2023-12-28T02:55:06;1.46;88.60
77496;SHT31;66600;48.378;9.948;2023-12-28T02:55:37;1.45;88.57
77496;SHT31;66600;48.378;9.948;2023-12-28T02:56:07;1.45;88.58
77496;SHT31;66600;48.378;9.948;2023-12-28T02:56:39;1.42;88.64
77496;SHT31;66600;48.378;9.948;2023-12-28T02:57:10;1.45;88.64
77496;SHT31;66600;48.378;9.948;2023-12-28T02:57:40;1.45;88.63
77496;SHT31;66600;48.378;9.948;2023-12-28T02:58:11;1.46;88.64
77496;SHT31;66600;48.378;9.948;2023-12-28T02:58:41;1.46;88.66
77496;SHT31;66600;48.378;9.948;2023-12-28T02:59:11;1.51;88.62
77496;SHT31;66600;48.378;9.948;2023-12-28T02:59:41;1.51;88.56
77496;SHT31;66600;48.378;9.948;2023-12-28T03:00:12;1.51;88.53
77496;SHT31;66600;48.378;9.948;2023-12-28T03:00:43;1.52;88.48
77496;SHT31;66600;48.378;9.948;2023-12-28T03:01:13;1.53;88.48
77496;SHT31;66600;48.378;9.948;2023-12-28T03:01:43;1.48;88.45
77496;SHT31;66600;48.378;9.948;2023-12-28T03:02:13;1.49;88.48
77496;SHT31;66600;48.378;9.948;2023-12-28T03:02:44;1.49;88.42
77496;SHT31;66600;48.378;9.948;2023-12-28T03:03:14;1.53;88.43
77496;SHT31;66600;48.378;9.948;2023-12-28T03:03:44;1.51;88.43
77496;SHT31;66600;48.378;9.948;2023-12-28T03:04:15;1.53;88.43
77496;SHT31;66600;48.378;9.948;2023-12-28T03:04:45;1.49;88.46
77496;SHT31;66600;48.378;9.948;2023-12-28T03:05:16;1.51;88.45
77496;SHT31;66600;48.378;9.948;2023-12-28T03:05:46;1.52;88.39
77496;SHT31;66600;48.378;9.948;2023-12-28T03:06:17;1.51;88.39
77496;SHT31;66600;48.378;9.948;2023-12-28T03:06:47;1.49;88.41
77496;SHT31;66600;48.378;9.948;2023-12-28T03:07:18;1.51;88.45
77496;SHT31;66600;48.378;9.948;2023-12-28T03:07:48;1.51;88.44
77496;SHT31;66600;48.378;9.948;2023-12-28T03:08:18;1.49;88.41
77496;SHT31;66600;48.378;9.948;2023-12-28T03:08:49;1.51;88.40
77496;SHT31;66600;48.378;9.948;2023-12-28T03:09:19;1.49;88.41
77496;SHT31;66600;48.378;9.948;2023-12-28T03:09:49;1.51;88.37
77496;SHT31;66600;48.378;9.948;2023-12-28T03:10:19;1.48;88.37
77496;SHT31;66600;48.378;9.948;2023-12-28T03:10:50;1.51;88.35
77496;SHT31;66600;48.378;9.948;2023-12-28T03:11:20;1.51;88.36
77496;SHT31;66600;48.378;9.948;2023-12-28T03:11:51;1.51;88.37
77496;SHT31;66600;48.378;9.948;2023-12-28T03:12:21;1.51;88.33
77496;SHT31;66600;48.378;9.948;2023-12-28T03:12:52;1.49;88.29
77496;SHT31;66600;48.378;9.948;2023-12-28T03:13:22;1.52;88.26
77496;SHT31;66600;48.378;9.948;2023-12-28T03:13:52;1.53;88.24
77496;SHT31;66600;48.378;9.948;2023-12-28T03:14:23;1.53;88.23
77496;SHT31;66600;48.378;9.948;2023-12-28T03:14:53;1.52;88.21
77496;SHT31;66600;48.378;9.948;2023-12-28T03:15:24;1.53;88.21
77496;SHT31;66600;48.378;9.948;2023-12-28T03:15:54;1.53;88.22
77496;SHT31;66600;48.378;9.948;2023-12-28T03:16:24;1.56;88.19
77496;SHT31;66600;48.378;9.948;2023-12-28T03:16:54;1.56;88.12
77496;SHT31;66600;48.378;9.948;2023-12-28T03:17:25;1.56;88.10
77496;SHT31;66600;48.378;9.948;2023-12-28T03:17:55;1.59;88.08
77496;SHT31;66600;48.378;9.948;2023-12-28T03:18:25;1.59;87.99
77496;SHT31;66600;48.378;9.948;2023-12-28T03:18:56;1.63;87.90
77496;SHT31;66600;48.378;9.948;2023-12-28T03:19:26;1.63;87.82
77496;SHT31;66600;48.378;9.948;2023-12-28T03:20:00;1.66;87.68
77496;SHT31;66600;48.378;9.948;2023-12-28T03:20:30;1.69;87.55